sensor_id;sensor_type;location;lat;lon;timestamp;P1;durP1;ratioP1;P2;durP2;ratioP2
23702;SDS011;12030;50.376;8.762;2024-02-26T00:02:22;4.33;;;1.87;;
23702;SDS011;12030;50.376;8.762;2024-02-26T00:04:48;3.50;;;2.07;;
23702;SDS011;12030;50.376;8.762;2024-02-26T00:07:15;2.40;;;1.80;;
23702;SDS011;12030;50.376;8.762;2024-02-26T00:09:40;2.40;;;1.70;;
23702;SDS011;12030;50.376;8.762;2024-02-26T00:12:06;1.77;;;1.63;;
23702;SDS011;12030;50.376;8.762;2024-02-26T00:14:31;2.03;;;1.60;;
23702;SDS011;12030;50.376;8.762;2024-02-26T00:16:57;2.73;;;2.00;;
23702;SDS011;12030;50.376;8.762;2024-02-26T00:19:23;1.63;;;1.53;;
23702;SDS011;12030;50.376;8.762;2024-02-26T00:21:48;2.33;;;1.60;;
23702;SDS011;12030;50.376;8.762;2024-02-26T00:24:14;2.60;;;1.80;;
23702;SDS011;12030;50.376;8.762;2024-02-26T00:26:39;2.07;;;1.70;;
23702;SDS011;12030;50.376;8.762;2024-02-26T00:29:05;2.13;;;1.80;;
23702;SDS011;12030;50.376;8.762;2024-02-26T00:31:30;3.30;;;2.37;;
23702;SDS011;12030;50.376;8.762;2024-02-26T00:33:56;2.80;;;2.37;;
23702;SDS011;12030;50.376;8.762;2024-02-26T00:36:22;2.63;;;2.30;;
23702;SDS011;12030;50.376;8.762;2024-02-26T00:38:47;3.50;;;3.20;;
23702;SDS011;12030;50.376;8.762;2024-02-26T00:41:19;4.93;;;4.50;;
23702;SDS011;12030;50.376;8.762;2024-02-26T00:43:45;3.63;;;2.83;;
23702;SDS011;12030;50.376;8.762;2024-02-26T00:46:11;2.87;;;2.10;;
23702;SDS011;12030;50.376;8.762;2024-02-26T00:48:36;2.93;;;2.17;;
23702;SDS011;12030;50.376;8.762;2024-02-26T00:51:02;2.93;;;2.50;;
23702;SDS011;12030;50.376;8.762;2024-02-26T00:53:30;3.20;;;2.20;;
23702;SDS011;12030;50.376;8.762;2024-02-26T00:55:56;3.30;;;2.43;;
23702;SDS011;12030;50.376;8.762;2024-02-26T00:58:23;3.43;;;2.23;;
23702;SDS011;12030;50.376;8.762;2024-02-26T01:00:49;2.53;;;2.10;;
23702;SDS011;12030;50.376;8.762;2024-02-26T01:03:15;2.73;;;2.10;;
23702;SDS011;12030;50.376;8.762;2024-02-26T01:05:40;3.53;;;2.50;;
23702;SDS011;12030;50.376;8.762;2024-02-26T01:08:06;3.20;;;2.47;;
23702;SDS011;12030;50.376;8.762;2024-02-26T01:10:33;4.37;;;3.00;;
23702;SDS011;12030;50.376;8.762;2024-02-26T01:12:59;4.50;;;2.67;;
23702;SDS011;12030;50.376;8.762;2024-02-26T01:15:25;3.40;;;2.50;;
23702;SDS011;12030;50.376;8.762;2024-02-26T01:17:50;2.60;;;2.23;;
23702;SDS011;12030;50.376;8.762;2024-02-26T01:20:16;3.47;;;2.40;;
23702;SDS011;12030;50.376;8.762;2024-02-26T01:22:42;4.73;;;2.90;;
23702;SDS011;12030;50.376;8.762;2024-02-26T01:25:09;3.60;;;2.70;;
23702;SDS011;12030;50.376;8.762;2024-02-26T01:27:35;5.50;;;3.10;;
23702;SDS011;12030;50.376;8.762;2024-02-26T01:30:04;2.80;;;2.40;;
23702;SDS011;12030;50.376;8.762;2024-02-26T01:32:30;4.93;;;2.80;;
23702;SDS011;12030;50.376;8.762;2024-02-26T01:34:56;5.90;;;2.60;;
23702;SDS011;12030;50.376;8.762;2024-02-26T01:37:22;3.23;;;2.50;;
23702;SDS011;12030;50.376;8.762;2024-02-26T01:39:47;4.23;;;3.20;;
23702;SDS011;12030;50.376;8.762;2024-02-26T01:42:13;2.60;;;2.40;;
23702;SDS011;12030;50.376;8.762;2024-02-26T01:44:38;3.53;;;2.40;;
23702;SDS011;12030;50.376;8.762;2024-02-26T01:47:04;3.90;;;2.27;;
23702;SDS011;12030;50.376;8.762;2024-02-26T01:49:33;3.53;;;2.63;;
23702;SDS011;12030;50.376;8.762;2024-02-26T01:52:00;3.57;;;2.17;;
23702;SDS011;12030;50.376;8.762;2024-02-26T01:54:26;3.43;;;2.27;;
23702;SDS011;12030;50.376;8.762;2024-02-26T01:56:52;3.20;;;2.60;;
23702;SDS011;12030;50.376;8.762;2024-02-26T01:59:18;3.80;;;2.37;;
23702;SDS011;12030;50.376;8.762;2024-02-26T02:01:45;2.80;;;2.40;;
23702;SDS011;12030;50.376;8.762;2024-02-26T02:04:17;3.83;;;2.87;;
23702;SDS011;12030;50.376;8.762;2024-02-26T02:06:43;2.70;;;2.13;;
23702;SDS011;12030;50.376;8.762;2024-02-26T02:09:11;3.30;;;2.30;;
23702;SDS011;12030;50.376;8.762;2024-02-26T02:11:36;3.30;;;2.00;;
23702;SDS011;12030;50.376;8.762;2024-02-26T02:14:02;2.83;;;2.20;;
23702;SDS011;12030;50.376;8.762;2024-02-26T02:16:28;2.60;;;2.07;;
23702;SDS011;12030;50.376;8.762;2024-02-26T02:18:54;3.27;;;2.20;;
23702;SDS011;12030;50.376;8.762;2024-02-26T02:21:19;2.40;;;2.00;;
23702;SDS011;12030;50.376;8.762;2024-02-26T02:23:45;2.87;;;2.20;;
23702;SDS011;12030;50.376;8.762;2024-02-26T02:26:11;3.43;;;2.57;;
23702;SDS011;12030;50.376;8.762;2024-02-26T02:28:38;3.53;;;2.57;;
23702;SDS011;12030;50.376;8.762;2024-02-26T02:31:05;3.20;;;2.47;;
23702;SDS011;12030;50.376;8.762;2024-02-26T02:33:31;5.80;;;2.60;;
23702;SDS011;12030;50.376;8.762;2024-02-26T02:35:57;2.53;;;2.00;;
23702;SDS011;12030;50.376;8.762;2024-02-26T02:38:23;5.07;;;2.03;;
23702;SDS011;12030;50.376;8.762;2024-02-26T02:40:51;2.60;;;2.20;;
23702;SDS011;12030;50.376;8.762;2024-02-26T02:43:16;3.27;;;2.30;;
23702;SDS011;12030;50.376;8.762;2024-02-26T02:45:42;3.23;;;2.20;;
23702;SDS011;12030;50.376;8.762;2024-02-26T02:48:07;2.97;;;2.37;;
23702;SDS011;12030;50.376;8.762;2024-02-26T02:50:33;3.33;;;2.30;;
23702;SDS011;12030;50.376;8.762;2024-02-26T02:52:58;2.70;;;2.00;;
23702;SDS011;12030;50.376;8.762;2024-02-26T02:55:24;2.10;;;1.80;;
23702;SDS011;12030;50.376;8.762;2024-02-26T02:57:50;2.43;;;2.13;;
23702;SDS011;12030;50.376;8.762;2024-02-26T03:00:15;2.40;;;2.00;;
23702;SDS011;12030;50.376;8.762;2024-02-26T03:02:41;2.90;;;2.03;;
23702;SDS011;12030;50.376;8.762;2024-02-26T03:05:08;3.00;;;2.23;;
23702;SDS011;12030;50.376;8.762;2024-02-26T03:07:33;2.43;;;2.00;;
23702;SDS011;12030;50.376;8.762;2024-02-26T03:09:59;2.57;;;2.30;;
23702;SDS011;12030;50.376;8.762;2024-02-26T03:12:24;3.47;;;2.27;;
23702;SDS011;12030;50.376;8.762;2024-02-26T03:14:50;3.90;;;2.00;;
23702;SDS011;12030;50.376;8.762;2024-02-26T03:17:16;2.60;;;2.30;;
23702;SDS011;12030;50.376;8.762;2024-02-26T03:19:43;3.00;;;1.93;;
23702;SDS011;12030;50.376;8.762;2024-02-26T03:22:11;2.90;;;2.03;;
23702;SDS011;12030;50.376;8.762;2024-02-26T03:24:37;2.30;;;1.93;;
23702;SDS011;12030;50.376;8.762;2024-02-26T03:27:03;2.37;;;2.00;;
23702;SDS011;12030;50.376;8.762;2024-02-26T03:29:34;2.47;;;2.20;;
23702;SDS011;12030;50.376;8.762;2024-02-26T03:32:03;2.93;;;1.90;;
23702;SDS011;12030;50.376;8.762;2024-02-26T03:34:29;1.90;;;1.70;;
23702;SDS011;12030;50.376;8.762;2024-02-26T03:36:55;2.60;;;1.97;;
23702;SDS011;12030;50.376;8.762;2024-02-26T03:39:21;2.43;;;1.97;;
23702;SDS011;12030;50.376;8.762;2024-02-26T03:41:47;2.47;;;1.90;;
23702;SDS011;12030;50.376;8.762;2024-02-26T03:44:13;2.27;;;1.90;;
23702;SDS011;12030;50.376;8.762;2024-02-26T03:46:38;3.57;;;2.00;;
23702;SDS011;12030;50.376;8.762;2024-02-26T03:49:04;2.10;;;1.70;;
23702;SDS011;12030;50.376;8.762;2024-02-26T03:51:29;2.70;;;1.90;;
23702;SDS011;12030;50.376;8.762;2024-02-26T03:53:57;2.80;;;1.90;;
23702;SDS011;12030;50.376;8.762;2024-02-26T03:56:23;2.47;;;1.70;;
23702;SDS011;12030;50.376;8.762;2024-02-26T03:58:49;3.00;;;2.00;;
23702;SDS011;12030;50.376;8.762;2024-02-26T04:01:14;3.03;;;1.83;;
23702;SDS011;12030;50.376;8.762;2024-02-26T04:03:40;2.57;;;2.00;;
23702;SDS011;12030;50.376;8.762;2024-02-26T04:06:08;2.37;;;1.90;;
23702;SDS011;12030;50.376;8.762;2024-02-26T04:08:35;2.00;;;1.70;;
23702;SDS011;12030;50.376;8.762;2024-02-26T04:11:01;2.53;;;1.80;;
23702;SDS011;12030;50.376;8.762;2024-02-26T04:13:31;2.33;;;1.77;;
23702;SDS011;12030;50.376;8.762;2024-02-26T04:15:57;3.00;;;1.70;;
23702;SDS011;12030;50.376;8.762;2024-02-26T04:18:23;3.10;;;1.80;;
23702;SDS011;12030;50.376;8.762;2024-02-26T04:20:48;2.07;;;1.70;;
23702;SDS011;12030;50.376;8.762;2024-02-26T04:23:14;2.30;;;1.90;;
23702;SDS011;12030;50.376;8.762;2024-02-26T04:25:39;3.77;;;1.60;;
23702;SDS011;12030;50.376;8.762;2024-02-26T04:28:05;2.63;;;1.70;;
23702;SDS011;12030;50.376;8.762;2024-02-26T04:30:30;2.50;;;1.63;;
23702;SDS011;12030;50.376;8.762;2024-02-26T04:32:56;2.73;;;1.73;;
23702;SDS011;12030;50.376;8.762;2024-02-26T04:35:21;2.23;;;1.80;;
23702;SDS011;12030;50.376;8.762;2024-02-26T04:37:47;2.47;;;2.00;;
23702;SDS011;12030;50.376;8.762;2024-02-26T04:40:12;3.80;;;1.83;;
23702;SDS011;12030;50.376;8.762;2024-02-26T04:42:38;2.43;;;2.00;;
23702;SDS011;12030;50.376;8.762;2024-02-26T04:45:03;3.27;;;1.70;;
23702;SDS011;12030;50.376;8.762;2024-02-26T04:47:29;4.20;;;1.60;;
23702;SDS011;12030;50.376;8.762;2024-02-26T04:49:55;1.73;;;1.63;;
23702;SDS011;12030;50.376;8.762;2024-02-26T04:52:21;2.10;;;1.80;;
23702;SDS011;12030;50.376;8.762;2024-02-26T04:54:46;2.90;;;1.80;;
23702;SDS011;12030;50.376;8.762;2024-02-26T04:57:12;1.97;;;1.77;;
23702;SDS011;12030;50.376;8.762;2024-02-26T04:59:37;3.63;;;1.63;;
23702;SDS011;12030;50.376;8.762;2024-02-26T05:02:03;5.90;;;1.70;;
23702;SDS011;12030;50.376;8.762;2024-02-26T05:04:29;4.20;;;1.60;;
23702;SDS011;12030;50.376;8.762;2024-02-26T05:06:54;2.20;;;1.70;;
23702;SDS011;12030;50.376;8.762;2024-02-26T05:09:20;2.03;;;1.60;;
23702;SDS011;12030;50.376;8.762;2024-02-26T05:11:45;3.13;;;1.87;;
23702;SDS011;12030;50.376;8.762;2024-02-26T05:14:11;2.47;;;1.80;;
23702;SDS011;12030;50.376;8.762;2024-02-26T05:16:36;2.17;;;1.77;;
23702;SDS011;12030;50.376;8.762;2024-02-26T05:19:02;4.63;;;1.80;;
23702;SDS011;12030;50.376;8.762;2024-02-26T05:21:28;3.07;;;2.00;;
23702;SDS011;12030;50.376;8.762;2024-02-26T05:23:53;2.83;;;1.90;;
23702;SDS011;12030;50.376;8.762;2024-02-26T05:26:22;2.83;;;1.93;;
23702;SDS011;12030;50.376;8.762;2024-02-26T05:28:48;2.30;;;1.80;;
23702;SDS011;12030;50.376;8.762;2024-02-26T05:31:14;3.60;;;2.10;;
23702;SDS011;12030;50.376;8.762;2024-02-26T05:33:40;4.00;;;2.10;;
23702;SDS011;12030;50.376;8.762;2024-02-26T05:36:05;4.27;;;2.60;;
23702;SDS011;12030;50.376;8.762;2024-02-26T05:38:31;4.40;;;2.70;;
23702;SDS011;12030;50.376;8.762;2024-02-26T05:41:00;4.90;;;2.80;;
23702;SDS011;12030;50.376;8.762;2024-02-26T05:43:26;4.07;;;2.40;;
23702;SDS011;12030;50.376;8.762;2024-02-26T05:45:52;3.10;;;2.40;;
23702;SDS011;12030;50.376;8.762;2024-02-26T05:48:18;3.60;;;2.90;;
23702;SDS011;12030;50.376;8.762;2024-02-26T05:50:44;3.00;;;2.17;;
23702;SDS011;12030;50.376;8.762;2024-02-26T05:53:10;3.97;;;2.60;;
23702;SDS011;12030;50.376;8.762;2024-02-26T05:55:36;2.83;;;2.40;;
23702;SDS011;12030;50.376;8.762;2024-02-26T05:58:02;3.40;;;2.07;;
23702;SDS011;12030;50.376;8.762;2024-02-26T06:00:28;3.50;;;2.20;;
23702;SDS011;12030;50.376;8.762;2024-02-26T06:02:53;2.70;;;1.87;;
23702;SDS011;12030;50.376;8.762;2024-02-26T06:05:19;2.43;;;1.80;;
23702;SDS011;12030;50.376;8.762;2024-02-26T06:07:44;2.43;;;1.90;;
23702;SDS011;12030;50.376;8.762;2024-02-26T06:10:10;2.93;;;2.20;;
23702;SDS011;12030;50.376;8.762;2024-02-26T06:12:35;2.97;;;1.67;;
23702;SDS011;12030;50.376;8.762;2024-02-26T06:15:01;3.53;;;2.10;;
23702;SDS011;12030;50.376;8.762;2024-02-26T06:17:27;1.97;;;1.77;;
23702;SDS011;12030;50.376;8.762;2024-02-26T06:19:53;2.03;;;1.73;;
23702;SDS011;12030;50.376;8.762;2024-02-26T06:22:19;2.80;;;1.87;;
23702;SDS011;12030;50.376;8.762;2024-02-26T06:24:44;3.33;;;2.07;;
23702;SDS011;12030;50.376;8.762;2024-02-26T06:27:10;1.97;;;1.60;;
23702;SDS011;12030;50.376;8.762;2024-02-26T06:29:36;2.30;;;1.80;;
23702;SDS011;12030;50.376;8.762;2024-02-26T06:32:01;2.60;;;1.77;;
23702;SDS011;12030;50.376;8.762;2024-02-26T06:34:27;2.37;;;1.97;;
23702;SDS011;12030;50.376;8.762;2024-02-26T06:36:52;2.03;;;1.60;;
23702;SDS011;12030;50.376;8.762;2024-02-26T06:39:18;1.63;;;1.53;;
23702;SDS011;12030;50.376;8.762;2024-02-26T06:41:43;2.07;;;1.80;;
23702;SDS011;12030;50.376;8.762;2024-02-26T06:44:11;2.10;;;1.70;;
23702;SDS011;12030;50.376;8.762;2024-02-26T06:46:37;2.43;;;1.60;;
23702;SDS011;12030;50.376;8.762;2024-02-26T06:49:03;2.53;;;1.73;;
23702;SDS011;12030;50.376;8.762;2024-02-26T06:51:28;2.47;;;1.90;;
23702;SDS011;12030;50.376;8.762;2024-02-26T06:53:54;2.10;;;1.70;;
23702;SDS011;12030;50.376;8.762;2024-02-26T06:56:19;2.07;;;1.87;;
23702;SDS011;12030;50.376;8.762;2024-02-26T06:58:45;2.13;;;1.80;;
23702;SDS011;12030;50.376;8.762;2024-02-26T07:01:11;2.97;;;1.77;;
23702;SDS011;12030;50.376;8.762;2024-02-26T07:03:37;2.57;;;1.60;;
23702;SDS011;12030;50.376;8.762;2024-02-26T07:06:04;2.20;;;1.60;;
23702;SDS011;12030;50.376;8.762;2024-02-26T07:08:30;2.37;;;1.70;;
23702;SDS011;12030;50.376;8.762;2024-02-26T07:10:55;2.27;;;2.07;;
23702;SDS011;12030;50.376;8.762;2024-02-26T07:13:21;1.73;;;1.60;;
23702;SDS011;12030;50.376;8.762;2024-02-26T07:15:46;3.57;;;1.97;;
23702;SDS011;12030;50.376;8.762;2024-02-26T07:18:12;3.00;;;1.77;;
23702;SDS011;12030;50.376;8.762;2024-02-26T07:20:38;3.17;;;2.20;;
23702;SDS011;12030;50.376;8.762;2024-02-26T07:23:03;2.33;;;1.87;;
23702;SDS011;12030;50.376;8.762;2024-02-26T07:25:29;2.60;;;2.03;;
23702;SDS011;12030;50.376;8.762;2024-02-26T07:27:54;2.23;;;1.83;;
23702;SDS011;12030;50.376;8.762;2024-02-26T07:30:20;3.37;;;1.90;;
23702;SDS011;12030;50.376;8.762;2024-02-26T07:32:45;2.80;;;2.13;;
23702;SDS011;12030;50.376;8.762;2024-02-26T07:35:11;3.13;;;2.50;;
23702;SDS011;12030;50.376;8.762;2024-02-26T07:37:36;2.60;;;2.13;;
23702;SDS011;12030;50.376;8.762;2024-02-26T07:40:02;2.90;;;2.07;;
23702;SDS011;12030;50.376;8.762;2024-02-26T07:42:28;3.30;;;2.40;;
23702;SDS011;12030;50.376;8.762;2024-02-26T07:44:54;2.40;;;2.20;;
23702;SDS011;12030;50.376;8.762;2024-02-26T07:47:20;3.33;;;2.70;;
23702;SDS011;12030;50.376;8.762;2024-02-26T07:49:46;3.10;;;2.60;;
23702;SDS011;12030;50.376;8.762;2024-02-26T07:52:11;3.13;;;2.73;;
23702;SDS011;12030;50.376;8.762;2024-02-26T07:54:37;4.03;;;2.70;;
23702;SDS011;12030;50.376;8.762;2024-02-26T07:57:02;4.83;;;3.13;;
23702;SDS011;12030;50.376;8.762;2024-02-26T07:59:30;4.00;;;3.10;;
23702;SDS011;12030;50.376;8.762;2024-02-26T08:01:56;4.17;;;3.13;;
23702;SDS011;12030;50.376;8.762;2024-02-26T08:04:22;3.30;;;3.00;;
23702;SDS011;12030;50.376;8.762;2024-02-26T08:06:47;5.00;;;3.20;;
23702;SDS011;12030;50.376;8.762;2024-02-26T08:09:13;4.73;;;3.30;;
23702;SDS011;12030;50.376;8.762;2024-02-26T08:11:38;4.43;;;3.37;;
23702;SDS011;12030;50.376;8.762;2024-02-26T08:14:04;7.03;;;2.87;;
23702;SDS011;12030;50.376;8.762;2024-02-26T08:16:30;4.13;;;2.93;;
23702;SDS011;12030;50.376;8.762;2024-02-26T08:18:55;4.23;;;2.60;;
23702;SDS011;12030;50.376;8.762;2024-02-26T08:21:21;3.50;;;2.57;;
23702;SDS011;12030;50.376;8.762;2024-02-26T08:23:46;3.10;;;2.30;;
23702;SDS011;12030;50.376;8.762;2024-02-26T08:26:12;3.00;;;2.00;;
23702;SDS011;12030;50.376;8.762;2024-02-26T08:28:37;2.83;;;2.27;;
23702;SDS011;12030;50.376;8.762;2024-02-26T08:31:03;3.93;;;2.13;;
23702;SDS011;12030;50.376;8.762;2024-02-26T08:33:29;2.60;;;2.20;;
23702;SDS011;12030;50.376;8.762;2024-02-26T08:35:55;4.10;;;2.77;;
23702;SDS011;12030;50.376;8.762;2024-02-26T08:38:21;3.13;;;2.50;;
23702;SDS011;12030;50.376;8.762;2024-02-26T08:40:48;5.93;;;2.93;;
23702;SDS011;12030;50.376;8.762;2024-02-26T08:43:13;4.60;;;2.73;;
23702;SDS011;12030;50.376;8.762;2024-02-26T08:45:39;4.00;;;3.07;;
23702;SDS011;12030;50.376;8.762;2024-02-26T08:48:04;6.13;;;3.63;;
23702;SDS011;12030;50.376;8.762;2024-02-26T08:50:30;4.67;;;3.30;;
23702;SDS011;12030;50.376;8.762;2024-02-26T08:52:56;4.27;;;2.70;;
23702;SDS011;12030;50.376;8.762;2024-02-26T08:55:22;6.60;;;3.17;;
23702;SDS011;12030;50.376;8.762;2024-02-26T08:57:47;3.50;;;2.63;;
23702;SDS011;12030;50.376;8.762;2024-02-26T09:00:13;6.93;;;3.33;;
23702;SDS011;12030;50.376;8.762;2024-02-26T09:02:40;5.50;;;3.10;;
23702;SDS011;12030;50.376;8.762;2024-02-26T09:05:08;3.93;;;3.13;;
23702;SDS011;12030;50.376;8.762;2024-02-26T09:07:35;5.23;;;2.87;;
23702;SDS011;12030;50.376;8.762;2024-02-26T09:10:01;3.97;;;2.70;;
23702;SDS011;12030;50.376;8.762;2024-02-26T09:12:27;2.27;;;2.07;;
23702;SDS011;12030;50.376;8.762;2024-02-26T09:14:52;4.93;;;2.23;;
23702;SDS011;12030;50.376;8.762;2024-02-26T09:17:18;3.17;;;2.47;;
23702;SDS011;12030;50.376;8.762;2024-02-26T09:19:43;2.93;;;2.63;;
23702;SDS011;12030;50.376;8.762;2024-02-26T09:22:09;2.67;;;2.40;;
23702;SDS011;12030;50.376;8.762;2024-02-26T09:24:34;3.80;;;2.50;;
23702;SDS011;12030;50.376;8.762;2024-02-26T09:27:01;2.67;;;2.30;;
23702;SDS011;12030;50.376;8.762;2024-02-26T09:29:26;3.07;;;2.63;;
23702;SDS011;12030;50.376;8.762;2024-02-26T09:31:52;3.27;;;2.70;;
23702;SDS011;12030;50.376;8.762;2024-02-26T09:34:17;3.23;;;2.60;;
23702;SDS011;12030;50.376;8.762;2024-02-26T09:36:43;2.90;;;2.53;;
23702;SDS011;12030;50.376;8.762;2024-02-26T09:39:09;3.83;;;3.00;;
23702;SDS011;12030;50.376;8.762;2024-02-26T09:41:36;4.63;;;2.90;;
23702;SDS011;12030;50.376;8.762;2024-02-26T09:44:02;3.80;;;3.00;;
23702;SDS011;12030;50.376;8.762;2024-02-26T09:46:29;3.47;;;2.97;;
23702;SDS011;12030;50.376;8.762;2024-02-26T09:48:56;3.90;;;2.70;;
23702;SDS011;12030;50.376;8.762;2024-02-26T09:51:25;6.97;;;3.40;;
23702;SDS011;12030;50.376;8.762;2024-02-26T09:53:51;4.73;;;3.53;;
23702;SDS011;12030;50.376;8.762;2024-02-26T09:56:17;4.30;;;2.90;;
23702;SDS011;12030;50.376;8.762;2024-02-26T09:58:43;5.47;;;3.20;;
23702;SDS011;12030;50.376;8.762;2024-02-26T10:01:17;3.90;;;3.13;;
23702;SDS011;12030;50.376;8.762;2024-02-26T10:03:44;4.10;;;3.30;;
23702;SDS011;12030;50.376;8.762;2024-02-26T10:06:15;4.90;;;3.33;;
23702;SDS011;12030;50.376;8.762;2024-02-26T10:08:40;4.63;;;3.23;;
23702;SDS011;12030;50.376;8.762;2024-02-26T10:11:08;4.30;;;3.60;;
23702;SDS011;12030;50.376;8.762;2024-02-26T10:13:35;4.70;;;3.57;;
23702;SDS011;12030;50.376;8.762;2024-02-26T10:16:01;3.70;;;3.30;;
23702;SDS011;12030;50.376;8.762;2024-02-26T10:18:44;4.80;;;3.63;;
23702;SDS011;12030;50.376;8.762;2024-02-26T10:21:15;3.57;;;3.13;;
23702;SDS011;12030;50.376;8.762;2024-02-26T10:23:42;4.70;;;3.23;;
23702;SDS011;12030;50.376;8.762;2024-02-26T10:26:10;6.20;;;3.27;;
23702;SDS011;12030;50.376;8.762;2024-02-26T10:28:37;4.23;;;3.63;;
23702;SDS011;12030;50.376;8.762;2024-02-26T10:31:02;4.57;;;3.53;;
23702;SDS011;12030;50.376;8.762;2024-02-26T10:33:28;4.87;;;3.90;;
23702;SDS011;12030;50.376;8.762;2024-02-26T10:35:54;13.27;;;8.07;;
23702;SDS011;12030;50.376;8.762;2024-02-26T10:38:19;9.03;;;6.77;;
23702;SDS011;12030;50.376;8.762;2024-02-26T10:40:46;8.37;;;6.50;;
23702;SDS011;12030;50.376;8.762;2024-02-26T10:43:13;5.87;;;4.30;;
23702;SDS011;12030;50.376;8.762;2024-02-26T10:45:41;5.20;;;3.67;;
23702;SDS011;12030;50.376;8.762;2024-02-26T10:48:14;4.10;;;3.40;;
23702;SDS011;12030;50.376;8.762;2024-02-26T10:50:40;5.07;;;3.63;;
23702;SDS011;12030;50.376;8.762;2024-02-26T10:53:07;7.17;;;3.70;;
23702;SDS011;12030;50.376;8.762;2024-02-26T10:55:42;5.60;;;3.50;;
23702;SDS011;12030;50.376;8.762;2024-02-26T10:58:10;4.37;;;3.27;;
23702;SDS011;12030;50.376;8.762;2024-02-26T11:00:37;4.00;;;3.50;;
23702;SDS011;12030;50.376;8.762;2024-02-26T11:03:04;4.57;;;3.33;;
23702;SDS011;12030;50.376;8.762;2024-02-26T11:05:30;4.10;;;3.27;;
23702;SDS011;12030;50.376;8.762;2024-02-26T11:07:58;3.97;;;3.50;;
23702;SDS011;12030;50.376;8.762;2024-02-26T11:10:25;6.03;;;3.73;;
23702;SDS011;12030;50.376;8.762;2024-02-26T11:12:54;5.40;;;4.10;;
23702;SDS011;12030;50.376;8.762;2024-02-26T11:15:23;4.57;;;3.67;;
23702;SDS011;12030;50.376;8.762;2024-02-26T11:17:49;6.37;;;3.83;;
23702;SDS011;12030;50.376;8.762;2024-02-26T11:20:17;6.00;;;4.33;;
23702;SDS011;12030;50.376;8.762;2024-02-26T11:22:44;5.17;;;4.10;;
23702;SDS011;12030;50.376;8.762;2024-02-26T11:25:10;5.80;;;4.30;;
23702;SDS011;12030;50.376;8.762;2024-02-26T11:27:39;7.80;;;3.97;;
23702;SDS011;12030;50.376;8.762;2024-02-26T11:30:12;5.10;;;3.73;;
23702;SDS011;12030;50.376;8.762;2024-02-26T11:32:39;4.77;;;3.93;;
23702;SDS011;12030;50.376;8.762;2024-02-26T11:35:04;5.30;;;3.50;;
23702;SDS011;12030;50.376;8.762;2024-02-26T11:37:32;4.40;;;3.67;;
23702;SDS011;12030;50.376;8.762;2024-02-26T11:39:59;4.00;;;3.53;;
23702;SDS011;12030;50.376;8.762;2024-02-26T11:42:28;4.97;;;3.77;;
23702;SDS011;12030;50.376;8.762;2024-02-26T11:44:54;6.30;;;4.00;;
23702;SDS011;12030;50.376;8.762;2024-02-26T11:47:26;4.93;;;3.97;;
23702;SDS011;12030;50.376;8.762;2024-02-26T11:49:52;5.10;;;3.83;;
23702;SDS011;12030;50.376;8.762;2024-02-26T11:52:17;6.80;;;4.03;;
23702;SDS011;12030;50.376;8.762;2024-02-26T11:54:52;5.07;;;3.87;;
23702;SDS011;12030;50.376;8.762;2024-02-26T11:57:29;4.87;;;3.93;;
23702;SDS011;12030;50.376;8.762;2024-02-26T12:00:11;4.80;;;3.73;;
23702;SDS011;12030;50.376;8.762;2024-02-26T12:02:38;4.33;;;3.60;;
23702;SDS011;12030;50.376;8.762;2024-02-26T12:05:17;5.13;;;4.13;;
23702;SDS011;12030;50.376;8.762;2024-02-26T12:07:48;5.03;;;4.03;;
23702;SDS011;12030;50.376;8.762;2024-02-26T12:12:59;5.17;;;3.40;;
23702;SDS011;12030;50.376;8.762;2024-02-26T12:15:30;4.33;;;3.60;;
23702;SDS011;12030;50.376;8.762;2024-02-26T12:17:58;5.53;;;4.27;;
23702;SDS011;12030;50.376;8.762;2024-02-26T12:20:25;5.03;;;4.00;;
23702;SDS011;12030;50.376;8.762;2024-02-26T12:22:50;5.90;;;3.87;;
23702;SDS011;12030;50.376;8.762;2024-02-26T12:25:17;5.40;;;3.90;;
23702;SDS011;12030;50.376;8.762;2024-02-26T12:27:48;3.83;;;3.40;;
23702;SDS011;12030;50.376;8.762;2024-02-26T12:30:14;4.47;;;3.70;;
23702;SDS011;12030;50.376;8.762;2024-02-26T12:32:39;5.10;;;3.50;;
23702;SDS011;12030;50.376;8.762;2024-02-26T12:35:05;7.30;;;3.70;;
23702;SDS011;12030;50.376;8.762;2024-02-26T12:37:31;4.67;;;3.17;;
23702;SDS011;12030;50.376;8.762;2024-02-26T12:39:57;4.90;;;3.50;;
23702;SDS011;12030;50.376;8.762;2024-02-26T12:42:23;3.70;;;3.17;;
23702;SDS011;12030;50.376;8.762;2024-02-26T12:44:49;5.80;;;3.13;;
23702;SDS011;12030;50.376;8.762;2024-02-26T12:47:16;3.50;;;2.87;;
23702;SDS011;12030;50.376;8.762;2024-02-26T12:49:43;4.57;;;3.03;;
23702;SDS011;12030;50.376;8.762;2024-02-26T12:52:12;3.57;;;3.03;;
23702;SDS011;12030;50.376;8.762;2024-02-26T12:54:38;3.97;;;3.50;;
23702;SDS011;12030;50.376;8.762;2024-02-26T12:57:04;4.60;;;3.40;;
23702;SDS011;12030;50.376;8.762;2024-02-26T12:59:32;5.53;;;3.70;;
23702;SDS011;12030;50.376;8.762;2024-02-26T13:01:59;4.97;;;3.63;;
23702;SDS011;12030;50.376;8.762;2024-02-26T13:04:26;4.57;;;3.37;;
23702;SDS011;12030;50.376;8.762;2024-02-26T13:06:54;5.90;;;4.00;;
23702;SDS011;12030;50.376;8.762;2024-02-26T13:09:20;3.57;;;2.90;;
23702;SDS011;12030;50.376;8.762;2024-02-26T13:11:52;5.70;;;3.30;;
23702;SDS011;12030;50.376;8.762;2024-02-26T13:14:19;3.23;;;2.40;;
23702;SDS011;12030;50.376;8.762;2024-02-26T13:16:45;4.67;;;2.97;;
23702;SDS011;12030;50.376;8.762;2024-02-26T13:19:20;4.17;;;2.43;;
23702;SDS011;12030;50.376;8.762;2024-02-26T13:21:45;4.17;;;2.80;;
23702;SDS011;12030;50.376;8.762;2024-02-26T13:24:12;2.67;;;2.43;;
23702;SDS011;12030;50.376;8.762;2024-02-26T13:26:38;3.37;;;2.40;;
23702;SDS011;12030;50.376;8.762;2024-02-26T13:29:04;3.77;;;2.80;;
23702;SDS011;12030;50.376;8.762;2024-02-26T13:31:30;5.30;;;2.47;;
23702;SDS011;12030;50.376;8.762;2024-02-26T13:33:56;5.00;;;2.90;;
23702;SDS011;12030;50.376;8.762;2024-02-26T13:36:22;4.10;;;2.70;;
23702;SDS011;12030;50.376;8.762;2024-02-26T13:38:51;3.53;;;2.73;;
23702;SDS011;12030;50.376;8.762;2024-02-26T13:41:21;5.00;;;2.90;;
23702;SDS011;12030;50.376;8.762;2024-02-26T13:43:47;2.40;;;2.20;;
23702;SDS011;12030;50.376;8.762;2024-02-26T13:46:13;3.37;;;2.40;;
23702;SDS011;12030;50.376;8.762;2024-02-26T13:48:40;3.17;;;2.40;;
23702;SDS011;12030;50.376;8.762;2024-02-26T13:51:06;2.73;;;2.20;;
23702;SDS011;12030;50.376;8.762;2024-02-26T13:53:32;2.93;;;2.50;;
23702;SDS011;12030;50.376;8.762;2024-02-26T13:55:57;2.83;;;2.40;;
23702;SDS011;12030;50.376;8.762;2024-02-26T13:58:25;3.83;;;2.60;;
23702;SDS011;12030;50.376;8.762;2024-02-26T14:00:54;3.60;;;2.53;;
23702;SDS011;12030;50.376;8.762;2024-02-26T14:03:20;3.10;;;2.17;;
23702;SDS011;12030;50.376;8.762;2024-02-26T14:05:46;2.53;;;2.20;;
23702;SDS011;12030;50.376;8.762;2024-02-26T14:08:12;3.10;;;2.37;;
23702;SDS011;12030;50.376;8.762;2024-02-26T14:10:37;3.77;;;2.43;;
23702;SDS011;12030;50.376;8.762;2024-02-26T14:13:03;3.30;;;2.20;;
23702;SDS011;12030;50.376;8.762;2024-02-26T14:15:29;2.77;;;2.17;;
23702;SDS011;12030;50.376;8.762;2024-02-26T14:17:55;2.60;;;2.17;;
23702;SDS011;12030;50.376;8.762;2024-02-26T14:20:24;2.63;;;2.27;;
23702;SDS011;12030;50.376;8.762;2024-02-26T14:22:50;2.63;;;2.17;;
23702;SDS011;12030;50.376;8.762;2024-02-26T14:25:20;3.33;;;2.73;;
23702;SDS011;12030;50.376;8.762;2024-02-26T14:27:46;2.70;;;2.27;;
23702;SDS011;12030;50.376;8.762;2024-02-26T14:30:12;4.23;;;2.67;;
23702;SDS011;12030;50.376;8.762;2024-02-26T14:32:38;3.03;;;1.90;;
23702;SDS011;12030;50.376;8.762;2024-02-26T14:35:05;2.83;;;2.33;;
23702;SDS011;12030;50.376;8.762;2024-02-26T14:37:34;3.07;;;2.40;;
23702;SDS011;12030;50.376;8.762;2024-02-26T14:40:01;4.10;;;2.60;;
23702;SDS011;12030;50.376;8.762;2024-02-26T14:42:30;2.47;;;1.90;;
23702;SDS011;12030;50.376;8.762;2024-02-26T14:44:56;2.10;;;1.90;;
23702;SDS011;12030;50.376;8.762;2024-02-26T14:47:22;2.70;;;2.30;;